createdAt,value
2023-01-13T00:00:40.769Z,4.16
2023-01-13T00:01:40.670Z,4.16
2023-01-13T00:02:40.754Z,4.16
2023-01-13T00:03:40.631Z,4.16
2023-01-13T00:04:40.770Z,4.17
2023-01-13T00:05:40.616Z,4.17
2023-01-13T00:06:40.764Z,4.16
2023-01-13T00:07:40.594Z,4.15
2023-01-13T00:08:42.696Z,4.14
2023-01-13T00:09:40.560Z,4.14
2023-01-13T00:10:40.622Z,4.14
2023-01-13T00:11:40.541Z,4.12
2023-01-13T00:12:40.669Z,4.10
2023-01-13T00:13:40.509Z,4.08
2023-01-13T00:14:42.699Z,4.07
2023-01-13T00:15:40.545Z,4.06
2023-01-13T00:16:40.647Z,4.05
2023-01-13T00:17:40.459Z,4.05
2023-01-13T00:18:40.476Z,4.03
2023-01-13T00:19:40.431Z,4.03
2023-01-13T00:20:40.561Z,4.03
2023-01-13T00:21:40.402Z,4.03
2023-01-13T00:22:40.539Z,4.02
2023-01-13T00:23:40.378Z,4.01
2023-01-13T00:24:40.471Z,3.99
2023-01-13T00:25:40.353Z,3.98
2023-01-13T00:26:40.650Z,3.98
2023-01-13T00:27:40.335Z,3.98
2023-01-13T00:28:40.345Z,3.99
2023-01-13T00:29:40.301Z,4.00
2023-01-13T00:30:40.379Z,4.02
2023-01-13T00:31:40.360Z,4.03
2023-01-13T00:32:40.395Z,4.04
2023-01-13T00:33:40.269Z,4.06
2023-01-13T00:34:40.350Z,4.06
2023-01-13T00:35:40.218Z,4.04
2023-01-13T00:36:40.405Z,4.03
2023-01-13T00:37:40.192Z,4.03
2023-01-13T00:38:40.275Z,4.04
2023-01-13T00:39:40.175Z,4.04
2023-01-13T00:40:40.259Z,4.03
2023-01-13T00:41:40.139Z,4.02
2023-01-13T00:42:40.289Z,4.02
2023-01-13T00:43:40.120Z,4.04
2023-01-13T00:44:40.278Z,4.06
2023-01-13T00:45:40.090Z,4.08
2023-01-13T00:46:40.202Z,4.09
2023-01-13T00:47:40.074Z,4.09
2023-01-13T00:48:40.110Z,4.08
2023-01-13T00:49:40.036Z,4.07
2023-01-13T00:50:40.188Z,4.07
2023-01-13T00:51:40.008Z,4.08
2023-01-13T00:52:42.195Z,4.09
2023-01-13T00:53:39.989Z,4.09
2023-01-13T00:54:41.134Z,4.09
2023-01-13T00:55:39.957Z,4.09
2023-01-13T00:56:41.265Z,4.09
2023-01-13T00:57:39.927Z,4.08
2023-01-13T00:58:39.978Z,4.08
2023-01-13T00:59:39.898Z,4.08
2023-01-13T01:00:40.023Z,4.08
2023-01-13T01:01:40.060Z,4.07
2023-01-13T01:02:40.034Z,4.06
2023-01-13T01:03:39.859Z,4.06
2023-01-13T01:04:39.988Z,4.06
2023-01-13T01:05:39.828Z,4.07
2023-01-13T01:06:39.915Z,4.08
2023-01-13T01:07:39.811Z,4.09
2023-01-13T01:08:39.895Z,4.08
2023-01-13T01:09:39.773Z,4.07
2023-01-13T01:10:39.896Z,4.07
2023-01-13T01:11:39.755Z,4.09
2023-01-13T01:12:40.859Z,4.12
2023-01-13T01:13:39.753Z,4.12
2023-01-13T01:14:39.807Z,4.12
2023-01-13T01:15:39.704Z,4.12
2023-01-13T01:16:39.795Z,4.12
2023-01-13T01:17:39.672Z,4.10
2023-01-13T01:18:40.754Z,4.07
2023-01-13T01:19:39.643Z,4.05
2023-01-13T01:20:39.821Z,4.04
2023-01-13T01:21:39.615Z,4.03
2023-01-13T01:22:39.795Z,4.02
2023-01-13T01:23:39.596Z,4.01
2023-01-13T01:24:39.637Z,4.00
2023-01-13T01:25:39.568Z,3.98
2023-01-13T01:26:39.724Z,3.98
2023-01-13T01:27:39.535Z,3.98
2023-01-13T01:28:39.705Z,3.96
2023-01-13T01:29:39.537Z,3.94
2023-01-13T01:30:39.652Z,3.92
2023-01-13T01:31:39.511Z,3.91
2023-01-13T01:32:39.538Z,3.90
2023-01-13T01:33:39.465Z,3.90
2023-01-13T01:35:00.488Z,3.90
2023-01-13T01:35:39.439Z,3.89
2023-01-13T01:36:39.430Z,3.87
2023-01-13T01:37:39.534Z,3.85
2023-01-13T01:38:39.431Z,3.83
2023-01-13T01:39:40.474Z,3.81
2023-01-13T01:40:39.371Z,3.80
2023-01-13T01:41:39.521Z,3.82
2023-01-13T01:42:39.344Z,3.85
2023-01-13T01:43:39.541Z,3.83
2023-01-13T01:44:39.337Z,3.81
2023-01-13T01:45:39.452Z,3.80
2023-01-13T01:46:39.440Z,3.80
2023-01-13T01:47:39.393Z,3.79
2023-01-13T01:48:39.263Z,3.77
2023-01-13T01:49:39.326Z,3.75
2023-01-13T01:50:39.263Z,3.73
2023-01-13T01:51:39.295Z,3.73
2023-01-13T01:52:39.216Z,3.73
2023-01-13T01:53:39.404Z,3.74
2023-01-13T01:54:39.183Z,3.75
2023-01-13T01:55:39.233Z,3.76
2023-01-13T01:56:39.172Z,3.79
2023-01-13T01:58:02.229Z,3.81
2023-01-13T01:58:39.131Z,3.83
2023-01-13T01:59:39.142Z,3.83
2023-01-13T02:00:39.151Z,3.83
2023-01-13T02:01:39.448Z,3.81
2023-01-13T02:02:39.142Z,3.78
2023-01-13T02:03:39.270Z,3.73
2023-01-13T02:04:39.053Z,3.69
2023-01-13T02:05:39.104Z,3.65
2023-01-13T02:06:39.030Z,3.64
2023-01-13T02:07:39.138Z,3.63
2023-01-13T02:08:39.020Z,3.63
2023-01-13T02:09:39.121Z,3.62
2023-01-13T02:10:38.977Z,3.61
2023-01-13T02:11:39.111Z,3.60
2023-01-13T02:12:38.951Z,3.60
2023-01-13T02:13:39.162Z,3.60
2023-01-13T02:14:38.944Z,3.61
2023-01-13T02:15:59.989Z,3.61
2023-01-13T02:16:38.937Z,3.58
2023-01-13T02:17:39.050Z,3.55
2023-01-13T02:18:38.873Z,3.55
2023-01-13T02:19:38.953Z,3.57
2023-01-13T02:20:38.870Z,3.59
2023-01-13T02:21:41.083Z,3.60
2023-01-13T02:22:38.820Z,3.61
2023-01-13T02:23:38.931Z,3.62
2023-01-13T02:24:38.790Z,3.62
2023-01-13T02:25:38.858Z,3.61
2023-01-13T02:26:38.791Z,3.61
2023-01-13T02:27:38.899Z,3.62
2023-01-13T02:28:38.741Z,3.64
2023-01-13T02:29:38.830Z,3.66
2023-01-13T02:30:38.720Z,3.66
2023-01-13T02:31:39.940Z,3.63
2023-01-13T02:32:38.710Z,3.63
2023-01-13T02:33:38.800Z,3.62
2023-01-13T02:34:38.659Z,3.61
2023-01-13T02:35:38.729Z,3.59
2023-01-13T02:36:38.635Z,3.57
2023-01-13T02:37:38.767Z,3.53
2023-01-13T02:38:38.641Z,3.50
2023-01-13T02:39:38.708Z,3.49
2023-01-13T02:40:38.588Z,3.49
2023-01-13T02:41:38.738Z,3.48
2023-01-13T02:42:38.558Z,3.45
2023-01-13T02:43:39.609Z,3.43
2023-01-13T02:44:38.546Z,3.42
2023-01-13T02:45:38.621Z,3.44
2023-01-13T02:46:38.498Z,3.44
2023-01-13T02:47:38.650Z,3.43
2023-01-13T02:48:38.476Z,3.45
2023-01-13T02:49:39.668Z,3.49
2023-01-13T02:50:38.467Z,3.50
2023-01-13T02:51:38.518Z,3.51
2023-01-13T02:52:38.435Z,3.53
2023-01-13T02:53:38.552Z,3.53
2023-01-13T02:54:38.398Z,3.51
2023-01-13T02:55:38.490Z,3.48
2023-01-13T02:56:38.396Z,3.44
2023-01-13T02:57:38.526Z,3.40
2023-01-13T02:58:38.347Z,3.35
2023-01-13T02:59:38.475Z,3.33
2023-01-13T03:00:38.325Z,3.31
2023-01-13T03:01:38.466Z,3.29
2023-01-13T03:02:38.345Z,3.27
2023-01-13T03:03:38.445Z,3.27
2023-01-13T03:04:38.284Z,3.27
2023-01-13T03:05:38.365Z,3.30
2023-01-13T03:06:38.247Z,3.34
2023-01-13T03:07:40.401Z,3.36
2023-01-13T03:08:38.236Z,3.38
2023-01-13T03:09:38.243Z,3.39
2023-01-13T03:10:38.195Z,3.38
2023-01-13T03:11:39.296Z,3.36
2023-01-13T03:12:38.169Z,3.35
2023-01-13T03:13:40.306Z,3.35
2023-01-13T03:14:38.156Z,3.34
2023-01-13T03:15:38.245Z,3.31
2023-01-13T03:16:38.163Z,3.27
2023-01-13T03:17:38.284Z,3.24
2023-01-13T03:18:38.087Z,3.24
2023-01-13T03:19:38.104Z,3.23
2023-01-13T03:20:38.075Z,3.20
2023-01-13T03:21:38.150Z,3.21
2023-01-13T03:22:38.034Z,3.23
2023-01-13T03:23:38.203Z,3.23
2023-01-13T03:24:38.009Z,3.25
2023-01-13T03:25:38.115Z,3.26
2023-01-13T03:26:38.003Z,3.25
2023-01-13T03:27:38.163Z,3.23
2023-01-13T03:28:37.962Z,3.20
2023-01-13T03:29:37.988Z,3.17
2023-01-13T03:30:38.072Z,3.15
2023-01-13T03:31:38.026Z,3.16
2023-01-13T03:32:37.930Z,3.15
2023-01-13T03:33:38.062Z,3.14
2023-01-13T03:34:37.883Z,3.12
2023-01-13T03:35:39.025Z,3.10
2023-01-13T03:36:37.854Z,3.10
2023-01-13T03:37:37.935Z,3.09
2023-01-13T03:38:37.847Z,3.07
2023-01-13T03:39:37.831Z,3.05
2023-01-13T03:40:37.801Z,3.03
2023-01-13T03:41:38.931Z,3.01
2023-01-13T03:42:37.779Z,2.99
2023-01-13T03:43:37.938Z,2.98
2023-01-13T03:44:37.845Z,2.97
2023-01-13T03:45:37.929Z,3.00
2023-01-13T03:46:37.717Z,3.04
2023-01-13T03:47:37.809Z,3.09
2023-01-13T03:48:37.707Z,3.13
2023-01-13T03:49:37.840Z,3.15
2023-01-13T03:50:37.689Z,3.15
2023-01-13T03:51:37.781Z,3.14
2023-01-13T03:52:37.651Z,3.13
2023-01-13T03:54:46.992Z,2.57
2023-01-13T03:55:46.908Z,2.58
2023-01-13T03:56:46.959Z,2.81
2023-01-13T03:57:46.877Z,2.91
2023-01-13T03:59:07.943Z,2.98
2023-01-13T03:59:46.837Z,3.03
2023-01-13T04:00:47.001Z,3.07
2023-01-13T04:01:46.922Z,3.11
2023-01-13T04:02:46.931Z,3.13
2023-01-13T04:03:46.809Z,3.12
2023-01-13T04:04:46.869Z,3.10
2023-01-13T04:05:46.755Z,3.09
2023-01-13T04:06:46.909Z,3.08
2023-01-13T04:07:46.764Z,3.07
2023-01-13T04:08:46.844Z,3.07
2023-01-13T04:09:46.706Z,3.07
2023-01-13T04:10:46.772Z,3.07
2023-01-13T04:11:46.677Z,3.06
2023-01-13T04:12:46.808Z,3.04
2023-01-13T04:13:46.668Z,3.03
2023-01-13T04:14:46.743Z,3.06
2023-01-13T04:15:46.667Z,3.09
2023-01-13T04:16:48.765Z,3.12
2023-01-13T04:17:46.604Z,3.15
2023-01-13T04:18:47.745Z,3.18
2023-01-13T04:19:46.604Z,3.20
2023-01-13T04:20:47.681Z,3.20
2023-01-13T04:21:46.553Z,3.20
2023-01-13T04:22:46.643Z,3.20
2023-01-13T04:23:46.524Z,3.21
2023-01-13T04:24:46.626Z,3.24
2023-01-13T04:25:46.520Z,3.26
2023-01-13T04:26:46.664Z,3.25
2023-01-13T04:27:46.471Z,3.25
2023-01-13T04:28:46.585Z,3.29
2023-01-13T04:29:46.447Z,3.34
2023-01-13T04:30:46.572Z,3.39
2023-01-13T04:31:46.444Z,3.40
2023-01-13T04:32:46.564Z,3.40
2023-01-13T04:33:46.401Z,3.39
2023-01-13T04:34:46.496Z,3.38
2023-01-13T04:35:46.386Z,3.37
2023-01-13T04:36:46.541Z,3.41
2023-01-13T04:37:46.363Z,3.47
2023-01-13T04:38:46.362Z,3.53
2023-01-13T04:39:46.322Z,3.58
2023-01-13T04:40:46.400Z,3.61
2023-01-13T04:41:46.292Z,3.63
2023-01-13T04:42:46.436Z,3.66
2023-01-13T04:43:46.283Z,3.67
2023-01-13T04:44:46.291Z,3.67
2023-01-13T04:45:46.243Z,3.66
2023-01-13T04:46:46.414Z,3.66
2023-01-13T04:47:46.212Z,3.68
2023-01-13T04:48:46.342Z,3.67
2023-01-13T04:49:46.213Z,3.64
2023-01-13T04:50:46.274Z,3.63
2023-01-13T04:51:46.169Z,3.63
2023-01-13T04:52:46.324Z,3.66
2023-01-13T04:53:46.139Z,3.68
2023-01-13T04:54:46.262Z,3.70
2023-01-13T04:55:46.142Z,3.71
2023-01-13T04:56:46.183Z,3.72
2023-01-13T04:57:46.087Z,3.72
2023-01-13T04:58:46.111Z,3.73
2023-01-13T04:59:46.066Z,3.76
2023-01-13T05:00:46.152Z,3.79
2023-01-13T05:01:46.207Z,3.82
2023-01-13T05:02:46.202Z,3.85
2023-01-13T05:03:46.024Z,3.87
2023-01-13T05:04:46.212Z,3.91
2023-01-13T05:05:45.991Z,3.96
2023-01-13T05:06:48.081Z,4.00
2023-01-13T05:07:45.978Z,4.04
2023-01-13T05:08:46.104Z,4.06
2023-01-13T05:09:45.938Z,4.07
2023-01-13T05:10:46.028Z,4.07
2023-01-13T05:11:45.908Z,4.08
2023-01-13T05:12:46.068Z,4.08
2023-01-13T05:13:45.899Z,4.09
2023-01-13T05:14:46.008Z,4.08
2023-01-13T05:15:45.897Z,4.08
2023-01-13T05:16:46.052Z,4.10
2023-01-13T05:17:45.827Z,4.13
2023-01-13T05:19:06.911Z,4.16
2023-01-13T05:19:45.804Z,4.17
2023-01-13T05:20:45.900Z,4.19
2023-01-13T05:21:45.778Z,4.20
2023-01-13T05:22:45.944Z,4.22
2023-01-13T05:23:45.758Z,4.25
2023-01-13T05:24:45.829Z,4.26
2023-01-13T05:25:45.719Z,4.25
2023-01-13T05:26:45.810Z,4.24
2023-01-13T05:27:45.702Z,4.23
2023-01-13T05:28:45.797Z,4.24
2023-01-13T05:29:45.671Z,4.24
2023-01-13T05:30:47.786Z,4.24
2023-01-13T05:31:45.648Z,4.25
2023-01-13T05:32:45.869Z,4.25
2023-01-13T05:33:45.623Z,4.25
2023-01-13T05:34:45.656Z,4.22
2023-01-13T05:35:45.600Z,4.21
2023-01-13T05:36:45.742Z,4.18
2023-01-13T05:37:45.568Z,4.17
2023-01-13T05:38:45.726Z,4.16
2023-01-13T05:39:45.547Z,4.15
2023-01-13T05:40:45.662Z,4.16
2023-01-13T05:41:45.507Z,4.15
2023-01-13T05:42:45.548Z,4.14
2023-01-13T05:43:45.491Z,4.12
2023-01-13T05:44:45.527Z,4.11
2023-01-13T05:45:45.457Z,4.12
2023-01-13T05:46:45.650Z,4.14
2023-01-13T05:47:45.439Z,4.15
2023-01-13T05:48:45.549Z,4.16
2023-01-13T05:49:45.407Z,4.17
2023-01-13T05:50:45.444Z,4.19
2023-01-13T05:51:45.405Z,4.21
2023-01-13T05:52:47.452Z,4.22
2023-01-13T05:53:45.359Z,4.22
2023-01-13T05:54:45.453Z,4.20
2023-01-13T05:55:45.331Z,4.20
2023-01-13T05:56:45.435Z,4.19
2023-01-13T05:57:45.295Z,4.19
2023-01-13T05:58:45.474Z,4.19
2023-01-13T05:59:45.278Z,4.19
2023-01-13T06:00:45.464Z,4.20
2023-01-13T06:01:45.247Z,4.20
2023-01-13T06:02:45.433Z,4.21
2023-01-13T06:03:45.229Z,4.24
2023-01-13T06:04:45.334Z,4.28
2023-01-13T06:05:45.206Z,4.30
2023-01-13T06:06:45.307Z,4.31
2023-01-13T06:07:45.174Z,4.33
2023-01-13T06:08:45.354Z,4.35
2023-01-13T06:09:45.146Z,4.37
2023-01-13T06:10:45.184Z,4.37
2023-01-13T06:11:45.115Z,4.38
2023-01-13T06:12:45.156Z,4.38
2023-01-13T06:13:45.096Z,4.36
2023-01-13T06:15:07.153Z,4.34
2023-01-13T06:15:45.122Z,4.35
2023-01-13T06:16:45.193Z,4.34
2023-01-13T06:17:45.035Z,4.34
2023-01-13T06:18:45.184Z,4.33
2023-01-13T06:19:45.018Z,4.31
2023-01-13T06:20:47.137Z,4.30
2023-01-13T06:21:44.988Z,4.26
2023-01-13T06:22:45.133Z,4.22
2023-01-13T06:23:44.977Z,4.21
2023-01-13T06:24:45.086Z,4.18
2023-01-13T06:25:44.952Z,4.13
2023-01-13T06:26:46.106Z,4.08
2023-01-13T06:27:44.912Z,4.04
2023-01-13T06:28:45.145Z,4.03
2023-01-13T06:29:44.986Z,4.05
2023-01-13T06:30:45.241Z,4.12
2023-01-13T06:31:44.901Z,4.19
2023-01-13T06:32:44.971Z,4.26
2023-01-13T06:33:44.834Z,4.28
2023-01-13T06:34:44.910Z,4.28
2023-01-13T06:35:44.806Z,4.26
2023-01-13T06:36:44.911Z,4.26
2023-01-13T06:37:44.779Z,4.28
2023-01-13T06:38:53.884Z,4.31
2023-01-13T06:39:44.750Z,4.34
2023-01-13T06:40:44.987Z,4.38
2023-01-13T06:41:44.740Z,4.40
2023-01-13T06:42:44.909Z,4.40
2023-01-13T06:43:44.711Z,4.40
2023-01-13T06:44:45.813Z,4.41
2023-01-13T06:45:44.678Z,4.42
2023-01-13T06:47:54.202Z,3.77
2023-01-13T06:48:54.004Z,3.77
2023-01-13T06:49:54.135Z,3.98
2023-01-13T06:50:53.985Z,4.05
2023-01-13T06:51:55.098Z,4.06
2023-01-13T06:52:56.453Z,4.03
2023-01-13T06:53:54.063Z,4.02
2023-01-13T06:54:53.925Z,4.04
2023-01-13T06:55:54.044Z,4.07
2023-01-13T06:56:53.904Z,4.07
2023-01-13T06:57:56.003Z,4.06
2023-01-13T06:58:53.864Z,4.05
2023-01-13T06:59:54.063Z,4.06
2023-01-13T07:00:53.967Z,4.06
2023-01-13T07:01:54.235Z,4.04
2023-01-13T07:02:53.861Z,3.98
2023-01-13T07:03:54.890Z,3.92
2023-01-13T07:04:53.781Z,3.90
2023-01-13T07:05:53.870Z,3.91
2023-01-13T07:06:53.762Z,3.94
2023-01-13T07:07:53.852Z,3.98
2023-01-13T07:08:53.731Z,4.01
2023-01-13T07:09:54.921Z,4.01
2023-01-13T07:10:53.715Z,3.98
2023-01-13T07:11:53.783Z,3.96
2023-01-13T07:12:53.681Z,3.95
2023-01-13T07:13:53.770Z,3.93
2023-01-13T07:14:53.661Z,3.94
2023-01-13T07:15:54.731Z,3.98
2023-01-13T07:16:53.621Z,4.03
2023-01-13T07:17:53.784Z,4.07
2023-01-13T07:18:53.603Z,4.10
2023-01-13T07:19:53.771Z,4.12
2023-01-13T07:20:53.584Z,4.11
2023-01-13T07:21:53.598Z,4.13
2023-01-13T07:22:53.549Z,4.17
2023-01-13T07:23:53.692Z,4.20
2023-01-13T07:24:53.523Z,4.22
2023-01-13T07:25:55.659Z,4.26
2023-01-13T07:26:53.500Z,4.28
2023-01-13T07:27:53.603Z,4.32
2023-01-13T07:28:53.484Z,4.34
2023-01-13T07:29:53.588Z,4.37
2023-01-13T07:30:53.462Z,4.39
2023-01-13T07:31:53.646Z,4.40
2023-01-13T07:32:53.418Z,4.42
2023-01-13T07:33:53.506Z,4.45
2023-01-13T07:34:53.387Z,4.50
2023-01-13T07:35:53.498Z,4.53
2023-01-13T07:36:53.371Z,4.56
2023-01-13T07:37:55.568Z,4.54
2023-01-13T07:38:54.805Z,4.52
2023-01-13T07:39:53.417Z,4.49
2023-01-13T07:40:53.323Z,4.48
2023-01-13T07:41:53.400Z,4.47
2023-01-13T07:42:53.325Z,4.46
2023-01-13T07:43:54.417Z,4.49
2023-01-13T07:44:53.267Z,4.53
2023-01-13T07:45:53.449Z,4.57
2023-01-13T07:46:53.238Z,4.62
2023-01-13T07:47:53.418Z,4.66
2023-01-13T07:48:53.213Z,4.72
2023-01-13T07:49:53.289Z,4.77
2023-01-13T07:50:53.177Z,4.85
2023-01-13T07:51:53.186Z,4.90
2023-01-13T07:52:53.149Z,4.95
2023-01-13T07:53:53.316Z,4.97
2023-01-13T07:54:53.138Z,4.99
2023-01-13T07:55:53.196Z,4.99
2023-01-13T07:56:53.099Z,4.99
2023-01-13T07:57:53.138Z,5.00
2023-01-13T07:58:53.074Z,5.02
2023-01-13T07:59:55.171Z,5.03
2023-01-13T08:00:53.183Z,5.04
2023-01-13T08:01:53.304Z,5.04
2023-01-13T08:02:53.074Z,5.06
2023-01-13T08:03:53.064Z,5.09
2023-01-13T08:04:52.998Z,5.10
2023-01-13T08:05:53.129Z,5.10
2023-01-13T08:06:52.976Z,5.12
2023-01-13T08:07:53.017Z,5.12
2023-01-13T08:08:52.961Z,5.11
2023-01-13T08:09:53.044Z,5.11
2023-01-13T08:10:52.914Z,5.11
2023-01-13T08:11:53.026Z,5.14
2023-01-13T08:12:56.949Z,5.15
2023-01-13T08:13:52.876Z,5.18
2023-01-13T08:14:52.984Z,5.19
2023-01-13T08:15:52.848Z,5.21
2023-01-13T08:16:52.957Z,5.21
2023-01-13T08:17:52.840Z,5.20
2023-01-13T08:18:53.986Z,5.19
2023-01-13T08:19:52.795Z,5.19
2023-01-13T08:20:52.892Z,5.16
2023-01-13T08:21:52.765Z,5.13
2023-01-13T08:22:52.816Z,5.10
2023-01-13T08:23:52.756Z,5.09
2023-01-13T08:24:52.862Z,5.13
2023-01-13T08:25:52.711Z,5.16
2023-01-13T08:26:52.796Z,5.17
2023-01-13T08:27:52.695Z,5.17
2023-01-13T08:28:52.837Z,5.16
2023-01-13T08:29:52.695Z,5.16
2023-01-13T08:31:13.915Z,5.15
2023-01-13T08:31:52.637Z,5.15
2023-01-13T08:32:52.709Z,5.16
2023-01-13T08:33:52.613Z,5.17
2023-01-13T08:34:52.736Z,5.18
2023-01-13T08:35:52.602Z,5.19
2023-01-13T08:37:13.588Z,5.18
2023-01-13T08:37:52.563Z,5.18
2023-01-13T08:38:52.557Z,5.20
2023-01-13T08:39:52.672Z,5.23
2023-01-13T08:40:52.526Z,5.25
2023-01-13T08:41:53.704Z,5.27
2023-01-13T08:42:52.485Z,5.28
2023-01-13T08:43:52.542Z,5.27
2023-01-13T08:44:52.464Z,5.27
2023-01-13T08:45:52.593Z,5.28
2023-01-13T08:46:52.439Z,5.29
2023-01-13T08:47:54.503Z,5.32
2023-01-13T08:48:52.408Z,5.35
2023-01-13T08:49:52.561Z,5.39
2023-01-13T08:50:52.383Z,5.41
2023-01-13T08:51:52.508Z,5.41
2023-01-13T08:52:52.374Z,5.41
2023-01-13T08:53:54.442Z,5.42
2023-01-13T08:54:52.344Z,5.45
2023-01-13T08:55:52.504Z,5.48
2023-01-13T08:56:52.441Z,5.53
2023-01-13T08:57:54.479Z,5.55
2023-01-13T08:58:52.281Z,5.56
2023-01-13T08:59:52.579Z,5.58
2023-01-13T09:00:52.364Z,5.60
2023-01-13T09:01:52.518Z,5.60
2023-01-13T09:02:52.235Z,5.61
2023-01-13T09:03:52.322Z,5.63
2023-01-13T09:04:52.203Z,5.67
2023-01-13T09:05:52.311Z,5.68
2023-01-13T09:06:52.179Z,5.69
2023-01-13T09:07:52.274Z,5.71
2023-01-13T09:08:52.150Z,5.73
2023-01-13T09:09:52.306Z,5.74
2023-01-13T09:10:52.120Z,5.78
2023-01-13T09:11:52.180Z,5.81
2023-01-13T09:12:52.107Z,5.81
2023-01-13T09:13:52.180Z,5.82
2023-01-13T09:14:52.060Z,5.83
2023-01-13T09:15:52.271Z,5.83
2023-01-13T09:16:52.041Z,5.82
2023-01-13T09:17:53.219Z,5.80
2023-01-13T09:18:52.023Z,5.79
2023-01-13T09:19:54.207Z,5.80
2023-01-13T09:20:51.980Z,5.82
2023-01-13T09:21:52.046Z,5.86
2023-01-13T09:22:51.961Z,5.89
2023-01-13T09:23:52.152Z,5.92
2023-01-13T09:24:51.941Z,5.94
2023-01-13T09:25:54.090Z,5.97
2023-01-13T09:26:51.898Z,6.01
2023-01-13T09:27:52.022Z,6.07
2023-01-13T09:28:51.889Z,6.14
2023-01-13T09:29:52.122Z,6.22
2023-01-13T09:30:51.897Z,6.27
2023-01-13T09:31:51.890Z,6.29
2023-01-13T09:32:51.833Z,6.31
2023-01-13T09:33:51.928Z,6.29
2023-01-13T09:34:51.808Z,6.29
2023-01-13T09:35:53.820Z,6.28
2023-01-13T09:36:51.771Z,6.25
2023-01-13T09:37:51.900Z,6.22
2023-01-13T09:38:51.748Z,6.21
2023-01-13T09:39:51.840Z,6.20
2023-01-13T09:40:51.733Z,6.19
2023-01-13T09:41:51.789Z,6.21
2023-01-13T09:42:51.680Z,6.24
2023-01-13T09:43:51.806Z,6.28
2023-01-13T09:44:51.671Z,6.32
2023-01-13T09:45:51.850Z,6.34
2023-01-13T09:46:51.640Z,6.34
2023-01-13T09:47:51.832Z,6.33
2023-01-13T09:48:51.640Z,6.33
2023-01-13T09:49:51.709Z,6.33
2023-01-13T09:50:51.592Z,6.32
2023-01-13T09:51:51.641Z,6.30
2023-01-13T09:52:51.593Z,6.29
2023-01-13T09:53:52.760Z,6.28
2023-01-13T09:54:51.542Z,6.29
2023-01-13T09:55:51.720Z,6.30
2023-01-13T09:56:51.509Z,6.31
2023-01-13T09:57:51.549Z,6.34
2023-01-13T09:58:51.468Z,6.38
2023-01-13T09:59:51.537Z,6.44
2023-01-13T10:00:51.466Z,6.47
2023-01-13T10:01:51.589Z,6.49
2023-01-13T10:02:51.429Z,6.49
2023-01-13T10:03:51.566Z,6.48
2023-01-13T10:04:51.506Z,6.45
2023-01-13T10:05:54.821Z,6.45
2023-01-13T10:06:51.370Z,6.47
2023-01-13T10:07:51.442Z,6.48
2023-01-13T10:08:51.347Z,6.48
2023-01-13T10:09:51.466Z,6.48
2023-01-13T10:10:51.335Z,6.48
2023-01-13T10:11:54.625Z,6.48
2023-01-13T10:12:51.298Z,6.47
2023-01-13T10:13:51.437Z,6.47
2023-01-13T10:14:51.288Z,6.46
2023-01-13T10:15:51.520Z,6.43
2023-01-13T10:16:51.270Z,6.40
2023-01-13T10:17:51.303Z,6.38
2023-01-13T10:18:51.210Z,6.33
2023-01-13T10:19:51.368Z,6.31
2023-01-13T10:20:51.176Z,6.31
2023-01-13T10:21:52.298Z,6.33
2023-01-13T10:22:51.188Z,6.32
2023-01-13T10:23:51.308Z,6.32
2023-01-13T10:24:51.140Z,6.32
2023-01-13T10:25:51.290Z,6.31
2023-01-13T10:26:51.121Z,6.34
2023-01-13T10:27:53.280Z,6.37
2023-01-13T10:28:51.101Z,6.41
2023-01-13T10:29:52.246Z,6.43
2023-01-13T10:30:51.076Z,6.40
2023-01-13T10:31:51.153Z,6.37
2023-01-13T10:32:51.069Z,6.37
2023-01-13T10:33:52.211Z,6.39
2023-01-13T10:34:51.044Z,6.41
2023-01-13T10:35:51.126Z,6.42
2023-01-13T10:36:50.987Z,6.43
2023-01-13T10:37:51.058Z,6.46
2023-01-13T10:38:50.959Z,6.49
2023-01-13T10:40:12.018Z,6.53
2023-01-13T10:40:50.931Z,6.57
2023-01-13T10:41:50.917Z,6.59
2023-01-13T10:42:50.995Z,6.59
2023-01-13T10:43:50.891Z,6.60
2023-01-13T10:44:52.069Z,6.59
2023-01-13T10:45:50.881Z,6.58
2023-01-13T10:46:51.027Z,6.56
2023-01-13T10:47:50.827Z,6.56
2023-01-13T10:48:50.905Z,6.56
2023-01-13T10:49:50.815Z,6.57
2023-01-13T10:50:51.856Z,6.59
2023-01-13T10:51:50.803Z,6.62
2023-01-13T10:52:50.876Z,6.66
2023-01-13T10:53:50.767Z,6.71
2023-01-13T10:54:50.916Z,6.75
2023-01-13T10:55:52.992Z,6.76
2023-01-13T10:57:11.864Z,6.77
2023-01-13T10:57:50.697Z,6.80
2023-01-13T10:58:50.878Z,6.86
2023-01-13T10:59:50.668Z,6.90
2023-01-13T11:00:50.716Z,6.93
2023-01-13T11:01:53.972Z,6.97
2023-01-13T11:02:50.871Z,7.00
2023-01-13T11:03:50.615Z,7.02
2023-01-13T11:04:50.868Z,7.03
2023-01-13T11:05:50.616Z,7.07
2023-01-13T11:06:50.725Z,7.08
2023-01-13T11:07:50.631Z,7.11
2023-01-13T11:08:53.926Z,7.15
2023-01-13T11:09:50.537Z,7.16
2023-01-13T11:10:50.604Z,7.15
2023-01-13T11:11:50.514Z,7.16
2023-01-13T11:12:51.676Z,7.15
2023-01-13T11:13:50.491Z,7.16
2023-01-13T11:14:50.531Z,7.18
2023-01-13T11:15:50.495Z,7.21
2023-01-13T11:16:53.626Z,7.26
2023-01-13T11:17:50.437Z,7.33
2023-01-13T11:18:50.553Z,7.39
2023-01-13T11:19:50.406Z,7.46
2023-01-13T11:20:50.537Z,7.53
2023-01-13T11:21:50.387Z,7.59
2023-01-13T11:22:51.554Z,7.63
2023-01-13T11:23:50.344Z,7.68
2023-01-13T11:24:51.013Z,7.77
2023-01-13T11:25:50.321Z,7.87
2023-01-13T11:26:50.434Z,7.95
2023-01-13T11:27:50.296Z,8.02
2023-01-13T11:28:50.378Z,8.06
2023-01-13T11:29:50.264Z,8.09
2023-01-13T11:30:51.393Z,8.12
2023-01-13T11:31:50.245Z,8.12
2023-01-13T11:32:50.448Z,8.12
2023-01-13T11:33:50.217Z,8.12
2023-01-13T11:34:52.350Z,8.13
2023-01-13T11:35:50.175Z,8.15
2023-01-13T11:36:52.382Z,8.19
2023-01-13T11:37:50.309Z,8.23
2023-01-13T11:38:51.483Z,8.26
2023-01-13T11:39:50.134Z,8.29
2023-01-13T11:40:50.232Z,8.29
2023-01-13T11:41:50.153Z,8.30
2023-01-13T11:43:59.035Z,7.81
2023-01-13T11:44:58.846Z,7.81
2023-01-13T11:45:58.977Z,8.05
2023-01-13T11:46:58.852Z,8.17
2023-01-13T11:47:58.904Z,8.22
2023-01-13T11:48:58.782Z,8.20
2023-01-13T11:49:58.892Z,8.17
2023-01-13T11:50:58.752Z,8.14
2023-01-13T11:52:00.961Z,8.10
2023-01-13T11:52:58.727Z,8.07
2023-01-13T11:53:58.814Z,8.05
2023-01-13T11:54:58.694Z,8.03
2023-01-13T11:55:58.941Z,8.02
2023-01-13T11:56:58.687Z,8.01
2023-01-13T11:57:59.703Z,8.00
2023-01-13T11:58:58.646Z,8.01
2023-01-13T11:59:58.721Z,8.02
2023-01-13T12:00:58.705Z,8.03
2023-01-13T12:01:58.740Z,8.04
2023-01-13T12:02:58.650Z,8.06
2023-01-13T12:03:59.714Z,8.10
2023-01-13T12:04:58.562Z,8.14
2023-01-13T12:05:58.723Z,8.18
2023-01-13T12:06:58.540Z,8.21
2023-01-13T12:07:58.616Z,8.27
2023-01-13T12:08:58.525Z,8.39
2023-01-13T12:09:58.594Z,8.50
2023-01-13T12:10:58.509Z,8.63
2023-01-13T12:11:58.644Z,8.73
2023-01-13T12:13:00.175Z,8.73
2023-01-13T12:13:58.557Z,8.66
2023-01-13T12:14:58.448Z,8.61
2023-01-13T12:15:58.495Z,8.55
2023-01-13T12:17:01.044Z,8.48
2023-01-13T12:17:58.534Z,8.41
2023-01-13T12:18:58.404Z,8.35
2023-01-13T12:19:58.462Z,8.30
2023-01-13T12:20:58.358Z,8.26
2023-01-13T12:21:58.518Z,8.22
2023-01-13T12:22:58.330Z,8.17
2023-01-13T12:23:58.441Z,8.14
2023-01-13T12:24:58.307Z,8.12
2023-01-13T12:25:59.357Z,8.09
2023-01-13T12:26:58.282Z,8.08
2023-01-13T12:27:58.438Z,8.08
2023-01-13T12:28:58.318Z,8.08
2023-01-13T12:29:58.362Z,8.06
2023-01-13T12:30:58.213Z,8.05
2023-01-13T12:31:58.360Z,8.02
2023-01-13T12:32:58.212Z,8.00
2023-01-13T12:33:58.213Z,8.01
2023-01-13T12:34:58.191Z,8.02
2023-01-13T12:35:58.252Z,8.03
2023-01-13T12:36:58.143Z,8.00
2023-01-13T12:37:58.232Z,7.99
2023-01-13T12:38:58.111Z,7.98
2023-01-13T12:39:58.779Z,8.02
2023-01-13T12:40:58.082Z,8.05
2023-01-13T12:41:58.263Z,8.06
2023-01-13T12:42:58.072Z,8.08
2023-01-13T12:43:58.144Z,8.10
2023-01-13T12:44:58.029Z,8.11
2023-01-13T12:45:59.271Z,8.09
2023-01-13T12:46:58.017Z,8.05
2023-01-13T12:47:58.188Z,8.00
2023-01-13T12:48:57.991Z,7.96
2023-01-13T12:49:58.185Z,7.95
2023-01-13T12:50:57.968Z,7.94
2023-01-13T12:51:58.153Z,7.93
2023-01-13T12:52:57.932Z,7.93
2023-01-13T12:53:57.975Z,7.95
2023-01-13T12:54:57.903Z,7.98
2023-01-13T12:55:58.004Z,8.02
2023-01-13T12:56:57.869Z,8.07
2023-01-13T12:57:58.044Z,8.13
2023-01-13T12:58:57.861Z,8.17
2023-01-13T12:59:57.889Z,8.20
2023-01-13T13:00:57.893Z,8.23
2023-01-13T13:01:58.191Z,8.25
2023-01-13T13:02:57.848Z,8.26
2023-01-13T13:03:57.853Z,8.25
2023-01-13T13:04:57.791Z,8.24
2023-01-13T13:05:57.890Z,8.23
2023-01-13T13:06:57.750Z,8.23
2023-01-13T13:07:58.894Z,8.23
2023-01-13T13:08:57.728Z,8.23
2023-01-13T13:10:18.866Z,8.23
2023-01-13T13:10:57.700Z,8.23
2023-01-13T13:11:57.793Z,8.22
2023-01-13T13:12:57.675Z,8.23
2023-01-13T13:13:57.773Z,8.20
2023-01-13T13:14:57.743Z,8.17
2023-01-13T13:15:57.759Z,8.12
2023-01-13T13:16:57.682Z,8.10
2023-01-13T13:17:57.802Z,8.09
2023-01-13T13:18:57.602Z,8.10
2023-01-13T13:19:57.788Z,8.14
2023-01-13T13:20:57.559Z,8.15
2023-01-13T13:21:58.511Z,8.18